createdAt,value
2018-08-28T00:02:05.062Z,96828.97
2018-08-28T00:04:32.364Z,96828.52
2018-08-28T00:06:59.648Z,96831.72
2018-08-28T00:12:19.595Z,96836.13
2018-08-28T00:14:46.885Z,96832.99
2018-08-28T00:17:14.172Z,96833.34
2018-08-28T00:19:41.445Z,96845.06
2018-08-28T00:22:08.722Z,96847.23
2018-08-28T00:24:36.060Z,96851.52
2018-08-28T00:27:03.401Z,96845.92
2018-08-28T00:29:30.695Z,96851.88
2018-08-28T00:31:57.977Z,96826.40
2018-08-28T00:34:25.312Z,96855.09
2018-08-28T00:36:52.758Z,96852.85
2018-08-28T00:39:20.002Z,96856.84
2018-08-28T00:41:47.498Z,96863.64
2018-08-28T00:44:14.859Z,96856.72
2018-08-28T00:46:42.193Z,96852.08
2018-08-28T00:49:09.447Z,96857.95
2018-08-28T00:51:36.724Z,96859.00
2018-08-28T00:54:04.035Z,96859.47
2018-08-28T00:56:31.372Z,96855.29
2018-08-28T00:58:58.689Z,96849.83
2018-08-28T01:01:25.983Z,96863.72
2018-08-28T01:03:53.265Z,96865.73
2018-08-28T01:06:20.551Z,96864.68
2018-08-28T01:08:47.919Z,96868.63
2018-08-28T01:11:15.211Z,96865.30
2018-08-28T01:13:42.550Z,96863.42
2018-08-28T01:16:09.884Z,96860.68
2018-08-28T01:18:37.199Z,96859.36
2018-08-28T01:21:04.479Z,96863.66
2018-08-28T01:23:31.784Z,96862.75
2018-08-28T01:25:59.106Z,96862.98
2018-08-28T01:28:26.450Z,96858.81
2018-08-28T01:30:53.759Z,96860.94
2018-08-28T01:33:21.023Z,96860.70
2018-08-28T01:35:48.317Z,96861.78
2018-08-28T01:38:15.570Z,96850.80
2018-08-28T01:40:42.817Z,96853.34
2018-08-28T01:43:16.660Z,96849.62
2018-08-28T01:45:44.031Z,96853.48
2018-08-28T01:48:11.275Z,96854.55
2018-08-28T01:50:38.606Z,96856.00
2018-08-28T01:53:05.877Z,96860.90
2018-08-28T01:55:33.138Z,96862.70
2018-08-28T01:58:00.417Z,96857.45
2018-08-28T02:00:27.643Z,96854.81
2018-08-28T02:02:54.964Z,96848.95
2018-08-28T02:05:22.220Z,96848.02
2018-08-28T02:07:49.577Z,96845.41
2018-08-28T02:10:16.857Z,96850.88
2018-08-28T02:12:44.084Z,96849.12
2018-08-28T02:15:11.354Z,96843.38
2018-08-28T02:17:38.987Z,96837.40
2018-08-28T02:20:06.412Z,96841.80
2018-08-28T02:22:33.643Z,96846.00
2018-08-28T02:25:01.002Z,96849.25
2018-08-28T02:27:28.341Z,96842.42
2018-08-28T02:29:55.604Z,96850.80
2018-08-28T02:32:22.933Z,96842.67
2018-08-28T02:34:50.370Z,96847.11
2018-08-28T02:37:17.643Z,96848.55
2018-08-28T02:39:44.982Z,96848.55
2018-08-28T02:42:12.394Z,96851.52
2018-08-28T02:44:39.735Z,96853.78
2018-08-28T02:47:07.103Z,96849.25
2018-08-28T02:49:34.393Z,96849.49
2018-08-28T02:52:01.740Z,96854.50
2018-08-28T02:57:22.093Z,96855.81
2018-08-28T02:59:49.503Z,96852.48
2018-08-28T03:02:16.815Z,96851.18
2018-08-28T03:04:44.182Z,96852.25
2018-08-28T03:07:11.447Z,96854.63
2018-08-28T03:09:38.804Z,96858.78
2018-08-28T03:12:06.174Z,96855.31
2018-08-28T03:14:33.442Z,96859.85
2018-08-28T03:17:00.681Z,96857.30
2018-08-28T03:19:27.965Z,96856.09
2018-08-28T03:21:55.278Z,96864.92
2018-08-28T03:24:22.601Z,96856.70
2018-08-28T03:26:49.865Z,96861.70
2018-08-28T03:29:17.271Z,96872.89
2018-08-28T03:31:44.521Z,96862.86
2018-08-28T03:34:11.808Z,96869.55
2018-08-28T03:36:39.092Z,96865.73
2018-08-28T03:39:06.480Z,96867.14
2018-08-28T03:41:33.756Z,96868.80
2018-08-28T03:44:01.062Z,96868.45
2018-08-28T03:46:28.418Z,96871.42
2018-08-28T03:48:55.718Z,96875.70
2018-08-28T03:51:23.093Z,96883.93
2018-08-28T03:53:50.393Z,96884.88
2018-08-28T03:56:17.641Z,96885.34
2018-08-28T03:58:44.959Z,96886.99
2018-08-28T04:01:12.307Z,96883.05
2018-08-28T04:03:39.697Z,96881.13
2018-08-28T04:06:07.686Z,96884.39
2018-08-28T04:08:35.042Z,96890.31
2018-08-28T04:11:02.315Z,96889.15
2018-08-28T04:13:29.578Z,96899.98
2018-08-28T04:15:56.911Z,96897.11
2018-08-28T04:18:24.127Z,96896.86
2018-08-28T04:20:51.438Z,96901.98
2018-08-28T04:23:19.425Z,96902.53
2018-08-28T04:25:46.693Z,96906.55
2018-08-28T04:28:18.600Z,96911.76
2018-08-28T04:30:45.901Z,96908.42
2018-08-28T04:33:13.129Z,96913.33
2018-08-28T04:35:40.379Z,96915.43
2018-08-28T04:38:07.654Z,96915.07
2018-08-28T04:40:34.968Z,96916.97
2018-08-28T04:43:02.574Z,96916.97
2018-08-28T04:45:29.952Z,96924.14
2018-08-28T04:47:57.288Z,96923.98
2018-08-28T04:50:24.585Z,96922.92
2018-08-28T04:52:51.868Z,96917.48
2018-08-28T04:55:19.257Z,96919.82
2018-08-28T04:57:46.562Z,96920.61
2018-08-28T05:00:13.804Z,96926.83
2018-08-28T05:02:41.065Z,96937.47
2018-08-28T05:05:09.032Z,96939.53
2018-08-28T05:07:36.316Z,96937.05
2018-08-28T05:10:04.554Z,96933.30
2018-08-28T05:12:31.852Z,96931.60
2018-08-28T05:14:59.482Z,96936.97
2018-08-28T05:17:26.769Z,96941.26
2018-08-28T05:19:54.244Z,96929.02
2018-08-28T05:22:21.970Z,96932.25
2018-08-28T05:24:49.487Z,96932.02
2018-08-28T05:27:16.789Z,96930.87
2018-08-28T05:29:44.123Z,96933.41
2018-08-28T05:32:11.343Z,96934.77
2018-08-28T05:34:38.760Z,96937.98
2018-08-28T05:37:06.201Z,96940.86
2018-08-28T05:39:33.598Z,96934.39
2018-08-28T05:42:00.941Z,96946.58
2018-08-28T05:44:28.205Z,96936.84
2018-08-28T05:46:55.598Z,96946.02
2018-08-28T05:49:22.959Z,96941.19
2018-08-28T05:51:50.234Z,96944.55
2018-08-28T05:54:17.523Z,96939.64
2018-08-28T05:56:44.775Z,96942.45
2018-08-28T05:59:12.018Z,96942.27
2018-08-28T06:01:39.424Z,96941.08
2018-08-28T06:04:06.813Z,96940.98
2018-08-28T06:06:34.158Z,96940.96
2018-08-28T06:09:01.495Z,96939.56
2018-08-28T06:11:28.935Z,96937.66
2018-08-28T06:13:56.326Z,96936.67
2018-08-28T06:16:23.712Z,96936.82
2018-08-28T06:18:51.056Z,96939.44
2018-08-28T06:21:18.366Z,96936.14
2018-08-28T06:23:45.604Z,96939.47
2018-08-28T06:26:12.922Z,96935.66
2018-08-28T06:28:40.287Z,96936.60
2018-08-28T06:31:07.526Z,96930.98
2018-08-28T06:33:34.799Z,96939.80
2018-08-28T06:36:02.182Z,96936.92
2018-08-28T06:38:29.471Z,96942.09
2018-08-28T06:41:03.760Z,96944.08
2018-08-28T06:43:31.321Z,96940.11
2018-08-28T06:45:58.716Z,96942.78
2018-08-28T06:48:25.973Z,96936.49
2018-08-28T06:50:53.370Z,96942.07
2018-08-28T06:53:20.683Z,96942.71
2018-08-28T06:55:47.937Z,96938.04
2018-08-28T06:58:15.231Z,96942.44
2018-08-28T07:00:42.521Z,96935.63
2018-08-28T07:03:09.799Z,96934.64
2018-08-28T07:05:37.164Z,96925.64
2018-08-28T07:08:04.596Z,96932.88
2018-08-28T07:10:31.959Z,96936.65
2018-08-28T07:12:59.290Z,96931.92
2018-08-28T07:15:26.603Z,96918.98
2018-08-28T07:17:53.891Z,96922.04
2018-08-28T07:20:21.211Z,96921.95
2018-08-28T07:22:48.484Z,96921.93
2018-08-28T07:25:15.729Z,96926.02
2018-08-28T07:27:43.017Z,96918.81
2018-08-28T07:30:10.250Z,96922.13
2018-08-28T07:32:37.514Z,96914.17
2018-08-28T07:35:04.838Z,96911.64
2018-08-28T07:37:32.186Z,96892.23
2018-08-28T07:39:59.498Z,96923.64
2018-08-28T07:42:26.836Z,96912.17
2018-08-28T07:44:54.114Z,96914.14
2018-08-28T07:47:21.410Z,96908.77
2018-08-28T07:49:48.660Z,96908.06
2018-08-28T07:52:15.928Z,96904.22
2018-08-28T07:54:43.266Z,96905.71
2018-08-28T07:57:10.568Z,96912.95
2018-08-28T07:59:37.838Z,96912.31
2018-08-28T08:02:05.588Z,96913.73
2018-08-28T08:04:33.332Z,96913.28
2018-08-28T08:07:00.671Z,96912.84
2018-08-28T08:09:27.989Z,96912.63
2018-08-28T08:11:55.237Z,96915.48
2018-08-28T08:14:22.552Z,96918.13
2018-08-28T08:16:49.840Z,96926.77
2018-08-28T08:19:17.120Z,96927.12
2018-08-28T08:21:44.448Z,96932.27
2018-08-28T08:24:11.781Z,96932.09
2018-08-28T08:26:39.036Z,96928.99
2018-08-28T08:29:06.507Z,96928.00
2018-08-28T08:31:33.836Z,96929.62
2018-08-28T08:34:01.075Z,96931.03
2018-08-28T08:36:28.337Z,96920.41
2018-08-28T08:38:55.609Z,96926.77
2018-08-28T08:41:22.915Z,96921.14
2018-08-28T08:43:50.131Z,96923.13
2018-08-28T08:46:17.505Z,96923.78
2018-08-28T08:48:44.911Z,96929.11
2018-08-28T08:51:12.215Z,96923.08
2018-08-28T08:53:39.521Z,96925.36
2018-08-28T08:56:06.855Z,96925.46
2018-08-28T08:58:34.184Z,96925.28
2018-08-28T09:01:01.482Z,96914.91
2018-08-28T09:03:28.763Z,96906.98
2018-08-28T09:05:57.806Z,96910.89
2018-08-28T09:08:25.171Z,96903.95
2018-08-28T09:10:52.549Z,96907.58
2018-08-28T09:13:19.811Z,96901.98
2018-08-28T09:15:47.083Z,96906.64
2018-08-28T09:18:14.360Z,96905.19
2018-08-28T09:20:41.672Z,96902.08
2018-08-28T09:23:08.992Z,96895.50
2018-08-28T09:25:36.299Z,96899.43
2018-08-28T09:28:03.635Z,96901.98
2018-08-28T09:30:30.890Z,96897.94
2018-08-28T09:32:58.208Z,96903.48
2018-08-28T09:35:25.448Z,96896.61
2018-08-28T09:37:52.733Z,96893.35
2018-08-28T09:40:20.144Z,96892.97
2018-08-28T09:42:47.448Z,96882.71
2018-08-28T09:45:14.815Z,96889.58
2018-08-28T09:47:42.197Z,96887.78
2018-08-28T09:50:09.590Z,96881.42
2018-08-28T09:52:36.844Z,96883.11
2018-08-28T09:55:04.211Z,96880.97
2018-08-28T09:57:31.517Z,96872.67
2018-08-28T09:59:58.939Z,96872.04
2018-08-28T10:02:26.351Z,96873.55
2018-08-28T10:04:53.721Z,96869.27
2018-08-28T10:07:20.936Z,96866.37
2018-08-28T10:09:48.233Z,96866.91
2018-08-28T10:12:15.569Z,96861.02
2018-08-28T10:14:42.866Z,96849.75
2018-08-28T10:17:10.185Z,96859.11
2018-08-28T10:19:37.466Z,96862.55
2018-08-28T10:22:04.780Z,96859.28
2018-08-28T10:24:32.032Z,96846.41
2018-08-28T10:26:59.391Z,96845.59
2018-08-28T10:29:26.657Z,96844.09
2018-08-28T10:31:54.014Z,96845.56
2018-08-28T10:34:21.337Z,96843.77
2018-08-28T10:36:48.843Z,96843.51
2018-08-28T10:39:16.155Z,96845.42
2018-08-28T10:41:43.435Z,96847.71
2018-08-28T10:44:10.785Z,96839.59
2018-08-28T10:46:38.115Z,96834.03
2018-08-28T10:49:05.419Z,96835.94
2018-08-28T10:51:32.724Z,96826.52
2018-08-28T10:53:59.977Z,96836.98
2018-08-28T10:56:27.237Z,96835.09
2018-08-28T10:58:56.251Z,96831.81
2018-08-28T11:01:23.622Z,96829.02
2018-08-28T11:03:50.833Z,96833.52
2018-08-28T11:06:18.121Z,96837.36
2018-08-28T11:08:45.469Z,96827.28
2018-08-28T11:11:12.707Z,96817.86
2018-08-28T11:13:40.000Z,96817.30
2018-08-28T11:16:07.421Z,96821.97
2018-08-28T11:18:34.771Z,96823.08
2018-08-28T11:21:02.080Z,96822.95
2018-08-28T11:23:29.416Z,96818.05
2018-08-28T11:25:56.761Z,96816.14
2018-08-28T11:28:23.999Z,96817.73
2018-08-28T11:30:51.269Z,96811.86
2018-08-28T11:33:18.556Z,96807.41
2018-08-28T11:35:46.018Z,96813.60
2018-08-28T11:38:13.316Z,96805.75
2018-08-28T11:40:40.546Z,96811.95
2018-08-28T11:43:07.965Z,96810.45
2018-08-28T11:45:35.263Z,96802.86
2018-08-28T11:48:02.954Z,96802.22
2018-08-28T11:50:31.000Z,96797.41
2018-08-28T11:52:58.309Z,96797.12
2018-08-28T11:55:25.614Z,96791.02
2018-08-28T11:57:52.924Z,96790.45
2018-08-28T12:00:20.256Z,96787.34
2018-08-28T12:03:06.900Z,96672.92
2018-08-28T12:05:34.150Z,96793.24
2018-08-28T12:08:01.536Z,96792.23
2018-08-28T12:10:28.882Z,96794.73
2018-08-28T12:12:56.244Z,96789.04
2018-08-28T12:15:23.517Z,96788.88
2018-08-28T12:17:50.856Z,96785.25
2018-08-28T12:20:18.283Z,96784.63
2018-08-28T12:22:45.668Z,96785.33
2018-08-28T12:25:13.186Z,96780.22
2018-08-28T12:27:40.537Z,96786.26
2018-08-28T12:30:09.095Z,96780.38
2018-08-28T12:32:36.413Z,96772.69
2018-08-28T12:35:03.909Z,96764.15
2018-08-28T12:37:31.221Z,96759.47
2018-08-28T12:39:58.565Z,96754.07
2018-08-28T12:42:25.875Z,96755.42
2018-08-28T12:44:53.131Z,96749.97
2018-08-28T12:47:20.550Z,96748.30
2018-08-28T12:49:47.891Z,96743.03
2018-08-28T12:52:15.131Z,96745.48
2018-08-28T12:54:42.407Z,96741.80
2018-08-28T12:57:09.707Z,96739.86
2018-08-28T13:02:30.593Z,96738.06
2018-08-28T13:04:57.835Z,96737.28
2018-08-28T13:07:25.183Z,96735.80
2018-08-28T13:09:52.454Z,96737.47
2018-08-28T13:12:19.685Z,96724.84
2018-08-28T13:14:47.143Z,96734.42
2018-08-28T13:17:14.431Z,96735.73
2018-08-28T13:19:41.767Z,96729.25
2018-08-28T13:22:09.067Z,96729.23
2018-08-28T13:24:36.402Z,96721.88
2018-08-28T13:27:07.161Z,96602.52
2018-08-28T13:29:34.474Z,96720.62
2018-08-28T13:32:01.937Z,96719.92
2018-08-28T13:34:29.174Z,96725.19
2018-08-28T13:36:56.454Z,96722.87
2018-08-28T13:39:23.810Z,96715.99
2018-08-28T13:41:51.166Z,96707.39
2018-08-28T13:47:11.291Z,96707.29
2018-08-28T13:49:38.634Z,96712.05
2018-08-28T13:52:06.285Z,96711.12
2018-08-28T13:54:33.690Z,96698.77
2018-08-28T13:57:01.022Z,96699.47
2018-08-28T13:59:28.439Z,96703.81
2018-08-28T14:01:55.786Z,96701.04
2018-08-28T14:04:23.094Z,96693.77
2018-08-28T14:06:50.405Z,96694.59
2018-08-28T14:09:17.666Z,96696.17
2018-08-28T14:11:44.945Z,96692.23
2018-08-28T14:14:12.213Z,96687.55
2018-08-28T14:16:39.600Z,96686.91
2018-08-28T14:19:06.852Z,96686.56
2018-08-28T14:21:34.193Z,96687.95
2018-08-28T14:24:01.566Z,96679.84
2018-08-28T14:26:29.623Z,96680.62
2018-08-28T14:28:56.990Z,96681.21
2018-08-28T14:31:24.280Z,96673.23
2018-08-28T14:33:51.476Z,96681.91
2018-08-28T14:36:18.837Z,96674.33
2018-08-28T14:38:46.214Z,96668.61
2018-08-28T14:41:13.479Z,96669.24
2018-08-28T14:43:40.901Z,96666.45
2018-08-28T14:46:08.742Z,96668.75
2018-08-28T14:48:36.303Z,96662.20
2018-08-28T14:51:03.685Z,96658.90
2018-08-28T14:53:30.981Z,96662.94
2018-08-28T14:55:58.200Z,96655.53
2018-08-28T14:58:25.649Z,96659.16
2018-08-28T15:00:56.304Z,96661.26
2018-08-28T15:03:24.069Z,96654.20
2018-08-28T15:05:51.346Z,96651.62
2018-08-28T15:08:18.710Z,96649.77
2018-08-28T15:10:46.037Z,96642.11
2018-08-28T15:13:13.324Z,96636.83
2018-08-28T15:15:40.793Z,96640.73
2018-08-28T15:18:08.051Z,96635.33
2018-08-28T15:20:35.423Z,96634.69
2018-08-28T15:23:02.748Z,96634.78
2018-08-28T15:25:30.308Z,96642.38
2018-08-28T15:27:57.618Z,96643.47
2018-08-28T15:30:24.902Z,96642.68
2018-08-28T15:32:52.271Z,96629.59
2018-08-28T15:35:19.624Z,96638.46
2018-08-28T15:37:46.822Z,96635.66
2018-08-28T15:40:14.181Z,96634.16
2018-08-28T15:42:41.609Z,96629.27
2018-08-28T15:45:08.884Z,96629.66
2018-08-28T15:47:36.166Z,96621.03
2018-08-28T15:50:03.568Z,96614.48
2018-08-28T15:52:30.825Z,96614.45
2018-08-28T15:54:58.092Z,96617.56
2018-08-28T15:57:25.356Z,96609.94
2018-08-28T15:59:52.632Z,96617.09
2018-08-28T16:02:19.928Z,96615.73
2018-08-28T16:04:47.384Z,96614.72
2018-08-28T16:07:14.723Z,96610.69
2018-08-28T16:09:41.967Z,96619.39
2018-08-28T16:12:09.388Z,96608.05
2018-08-28T16:14:37.632Z,96609.00
2018-08-28T16:17:05.018Z,96609.86
2018-08-28T16:19:32.357Z,96609.44
2018-08-28T16:22:01.008Z,96613.28
2018-08-28T16:24:28.331Z,96611.94
2018-08-28T16:26:55.670Z,96603.80
2018-08-28T16:29:23.037Z,96600.27
2018-08-28T16:31:50.518Z,96602.06
2018-08-28T16:34:17.830Z,96594.66
2018-08-28T16:36:45.176Z,96602.66
2018-08-28T16:39:12.504Z,96599.86
2018-08-28T16:41:39.795Z,96603.97
2018-08-28T16:44:07.268Z,96609.02
2018-08-28T16:46:35.039Z,96602.62
2018-08-28T16:49:02.275Z,96603.86
2018-08-28T16:51:29.570Z,96597.80
2018-08-28T16:53:56.845Z,96590.80
2018-08-28T16:56:24.101Z,96590.11
2018-08-28T16:58:51.499Z,96585.94
2018-08-28T17:01:18.911Z,96584.81
2018-08-28T17:03:46.206Z,96586.83
2018-08-28T17:06:13.685Z,96587.92
2018-08-28T17:11:33.627Z,96588.29
2018-08-28T17:14:00.923Z,96584.73
2018-08-28T17:16:28.255Z,96588.34
2018-08-28T17:18:55.478Z,96588.16
2018-08-28T17:21:22.797Z,96588.27
2018-08-28T17:23:50.094Z,96584.00
2018-08-28T17:26:17.383Z,96582.22
2018-08-28T17:28:44.626Z,96585.11
2018-08-28T17:31:11.924Z,96586.57
2018-08-28T17:33:39.202Z,96597.91
2018-08-28T17:36:06.908Z,96595.78
2018-08-28T17:38:34.239Z,96599.09
2018-08-28T17:41:01.529Z,96599.81
2018-08-28T17:43:28.848Z,96602.13
2018-08-28T17:45:56.230Z,96608.70
2018-08-28T17:48:24.048Z,96609.78
2018-08-28T17:50:51.621Z,96604.83
2018-08-28T17:53:18.953Z,96600.78
2018-08-28T17:55:46.271Z,96601.28
2018-08-28T17:58:13.607Z,96600.50
2018-08-28T18:00:41.054Z,96602.64
2018-08-28T18:03:10.475Z,96599.80
2018-08-28T18:05:38.172Z,96604.17
2018-08-28T18:08:05.543Z,96599.88
2018-08-28T18:10:32.925Z,96600.27
2018-08-28T18:13:00.312Z,96605.01
2018-08-28T18:15:27.621Z,96605.34
2018-08-28T18:17:55.009Z,96607.71
2018-08-28T18:20:25.982Z,96609.25
2018-08-28T18:22:53.265Z,96615.14
2018-08-28T18:25:20.502Z,96618.56
2018-08-28T18:27:55.824Z,96612.56
2018-08-28T18:30:23.102Z,96610.42
2018-08-28T18:32:50.437Z,96604.66
2018-08-28T18:35:17.746Z,96605.04
2018-08-28T18:37:45.280Z,96612.34
2018-08-28T18:40:12.551Z,96611.03
2018-08-28T18:42:39.903Z,96610.38
2018-08-28T18:45:07.308Z,96615.40
2018-08-28T18:47:34.568Z,96620.38
2018-08-28T18:50:01.909Z,96615.69
2018-08-28T18:52:29.160Z,96616.36
2018-08-28T18:54:56.469Z,96612.07
2018-08-28T18:57:23.804Z,96613.72
2018-08-28T18:59:51.111Z,96612.05
2018-08-28T19:02:18.407Z,96621.32
2018-08-28T19:04:45.777Z,96622.66
2018-08-28T19:07:13.783Z,96619.67
2018-08-28T19:09:41.118Z,96618.98
2018-08-28T19:12:08.471Z,96627.77
2018-08-28T19:14:35.832Z,96621.95
2018-08-28T19:17:03.374Z,96627.05
2018-08-28T19:19:30.654Z,96620.23
2018-08-28T19:21:57.992Z,96622.88
2018-08-28T19:24:25.326Z,96618.22
2018-08-28T19:26:52.701Z,96615.52
2018-08-28T19:29:20.071Z,96612.84
2018-08-28T19:31:48.244Z,96624.08
2018-08-28T19:34:15.473Z,96617.79
2018-08-28T19:36:42.751Z,96618.72
2018-08-28T19:39:10.001Z,96621.19
2018-08-28T19:41:37.293Z,96615.05
2018-08-28T19:44:04.665Z,96608.91
2018-08-28T19:46:31.890Z,96610.38
2018-08-28T19:48:59.221Z,96615.63
2018-08-28T19:51:26.535Z,96603.65
2018-08-28T19:53:53.824Z,96610.22
2018-08-28T19:56:21.102Z,96602.91
2018-08-28T19:58:48.322Z,96611.50
2018-08-28T20:01:15.572Z,96607.19
2018-08-28T20:03:42.888Z,96609.61
2018-08-28T20:06:10.259Z,96606.77
2018-08-28T20:08:37.539Z,96606.73
2018-08-28T20:11:05.128Z,96606.81
2018-08-28T20:13:32.487Z,96609.58
2018-08-28T20:15:59.719Z,96598.62
2018-08-28T20:18:26.996Z,96591.45
2018-08-28T20:20:54.336Z,96597.18
2018-08-28T20:23:21.564Z,96594.97
2018-08-28T20:25:48.802Z,96598.41
2018-08-28T20:28:16.099Z,96606.94
2018-08-28T20:30:43.323Z,96602.30
2018-08-28T20:33:10.599Z,96601.25
2018-08-28T20:35:37.966Z,96596.17
2018-08-28T20:38:05.350Z,96598.59
2018-08-28T20:40:32.610Z,96594.24
2018-08-28T20:42:59.865Z,96596.21
2018-08-28T20:45:27.206Z,96588.77
2018-08-28T20:47:54.510Z,96589.08
2018-08-28T20:50:21.797Z,96585.45
2018-08-28T20:52:49.114Z,96586.89
2018-08-28T20:55:16.473Z,96586.30
2018-08-28T20:57:43.771Z,96584.42
2018-08-28T21:00:11.128Z,96579.14
2018-08-28T21:02:38.372Z,96579.00
2018-08-28T21:05:05.753Z,96571.73
2018-08-28T21:07:33.045Z,96573.39
2018-08-28T21:10:00.362Z,96570.11
2018-08-28T21:12:27.807Z,96572.22
2018-08-28T21:14:55.172Z,96573.98
2018-08-28T21:17:22.498Z,96567.26
2018-08-28T21:19:49.757Z,96569.05
2018-08-28T21:22:17.102Z,96567.67
2018-08-28T21:24:44.354Z,96566.76
2018-08-28T21:27:11.684Z,96562.73
2018-08-28T21:29:38.997Z,96563.04
2018-08-28T21:32:20.113Z,96562.36
2018-08-28T21:34:47.364Z,96554.95
2018-08-28T21:37:14.704Z,96557.45
2018-08-28T21:39:41.991Z,96554.11
2018-08-28T21:42:09.289Z,96548.86
2018-08-28T21:44:36.568Z,96545.41
2018-08-28T21:47:03.838Z,96539.69
2018-08-28T21:49:31.163Z,96535.16
2018-08-28T21:51:58.472Z,96538.61
2018-08-28T21:54:25.811Z,96535.86
2018-08-28T21:56:53.070Z,96541.69
2018-08-28T21:59:20.363Z,96532.00
2018-08-28T22:01:47.709Z,96532.98
2018-08-28T22:04:15.064Z,96532.52
2018-08-28T22:06:48.220Z,96526.74
2018-08-28T22:09:15.512Z,96527.59
2018-08-28T22:11:42.885Z,96526.27
2018-08-28T22:14:10.146Z,96517.11
2018-08-28T22:16:37.463Z,96519.28
2018-08-28T22:19:05.011Z,96516.52
2018-08-28T22:21:32.328Z,96520.01
2018-08-28T22:24:00.670Z,96525.36
2018-08-28T22:26:28.028Z,96523.14
2018-08-28T22:28:55.283Z,96516.91
2018-08-28T22:31:22.634Z,96514.53
2018-08-28T22:33:49.863Z,96507.19
2018-08-28T22:36:17.165Z,96497.71
2018-08-28T22:38:44.488Z,96499.45
2018-08-28T22:41:11.769Z,96492.53
2018-08-28T22:43:39.147Z,96495.50
2018-08-28T22:46:06.619Z,96492.58
2018-08-28T22:48:33.858Z,96492.11
2018-08-28T22:51:01.190Z,96491.55
2018-08-28T22:53:28.542Z,96486.84
2018-08-28T22:55:55.858Z,96487.64
2018-08-28T22:58:23.111Z,96483.82
2018-08-28T23:00:50.386Z,96493.03
2018-08-28T23:03:17.661Z,96490.22
2018-08-28T23:05:44.935Z,96487.03
2018-08-28T23:08:12.226Z,96498.48
2018-08-28T23:10:39.549Z,96496.69
2018-08-28T23:13:06.960Z,96500.67
2018-08-28T23:15:34.270Z,96505.34
2018-08-28T23:18:01.551Z,96504.16
2018-08-28T23:20:28.961Z,96502.56
2018-08-28T23:22:56.257Z,96498.45
2018-08-28T23:25:23.586Z,96497.23
2018-08-28T23:27:50.832Z,96501.87
2018-08-28T23:30:18.235Z,96504.41
2018-08-28T23:32:45.417Z,96502.05
2018-08-28T23:35:12.758Z,96505.31
2018-08-28T23:37:40.022Z,96500.73
2018-08-28T23:40:08.185Z,96498.20
2018-08-28T23:42:35.538Z,96498.11
2018-08-28T23:45:02.955Z,96497.98
2018-08-28T23:47:30.222Z,96496.70
2018-08-28T23:49:57.622Z,96500.30
2018-08-28T23:52:24.930Z,96500.08
2018-08-28T23:54:52.191Z,96495.67
2018-08-28T23:57:19.570Z,96491.66
2018-08-28T23:59:46.803Z,96489.22
